Time;durP1;ratioP1;P1;durP2;ratioP2;P2;SDS_P1;SDS_P2;PMS_P1;PMS_P2;Temp;Humidity;BMP_temperature;BMP_pressure;BME280_temperature;BME280_humidity;BME280_pressure;Samples;Min_cycle;Max_cycle;Signal;HPM_P1;HPM_P2
2023/09/07 00:00:46;;;;;;;;;;;21.20;92.80;;;;;;5009037;28;19916;-72
2023/09/07 00:03:13;;;;;;;;;;;21.20;92.60;;;;;;5007428;28;19964;-72
2023/09/07 00:05:39;;;;;;;;;;;21.20;92.50;;;;;;5009109;28;19923;-72
2023/09/07 00:08:04;;;;;;;;;;;21.10;92.60;;;;;;5000994;28;19918;-72
2023/09/07 00:10:30;;;;;;;;;;;21.10;93.00;;;;;;5008453;28;19913;-72
2023/09/07 00:12:55;;;;;;;;;;;21.10;93.00;;;;;;5008549;28;19960;-72
2023/09/07 00:15:21;;;;;;;;;;;21.10;93.00;;;;;;5009179;28;19968;-72
2023/09/07 00:17:47;;;;;;;;;;;21.00;93.10;;;;;;5007672;28;20447;-72
2023/09/07 00:20:15;;;;;;;;;;;21.00;93.10;;;;;;5007151;28;19925;-72
2023/09/07 00:22:41;;;;;;;;;;;21.00;93.20;;;;;;5007383;28;19968;-72
2023/09/07 00:25:06;;;;;;;;;;;21.00;93.10;;;;;;5008420;28;19927;-72
2023/09/07 00:27:33;;;;;;;;;;;20.90;93.20;;;;;;5007343;28;19929;-72
2023/09/07 00:29:59;;;;;;;;;;;20.90;93.10;;;;;;5006995;28;19909;-72
2023/09/07 00:32:24;;;;;;;;;;;20.90;93.30;;;;;;5007245;28;19909;-72
2023/09/07 00:34:50;;;;;;;;;;;20.80;93.10;;;;;;5008537;28;19920;-72
2023/09/07 00:37:15;;;;;;;;;;;20.90;93.20;;;;;;5008923;28;19925;-72
2023/09/07 00:39:41;;;;;;;;;;;20.80;93.20;;;;;;5008600;28;20705;-72
2023/09/07 00:42:06;;;;;;;;;;;20.80;93.30;;;;;;5007297;28;19944;-72
2023/09/07 00:44:32;;;;;;;;;;;20.80;93.40;;;;;;5008334;28;19918;-72
2023/09/07 00:46:58;;;;;;;;;;;20.70;93.40;;;;;;5008159;28;19920;-72
2023/09/07 00:49:24;;;;;;;;;;;20.70;93.40;;;;;;5008332;28;19976;-72
2023/09/07 00:51:50;;;;;;;;;;;20.70;93.40;;;;;;5007447;28;19913;-72
2023/09/07 00:54:15;;;;;;;;;;;20.70;93.60;;;;;;5007301;28;19914;-72
2023/09/07 00:56:41;;;;;;;;;;;20.60;93.60;;;;;;5007069;28;19909;-72
2023/09/07 00:59:07;;;;;;;;;;;20.60;93.50;;;;;;5007894;28;19956;-72
2023/09/07 01:01:34;;;;;;;;;;;20.60;93.50;;;;;;5008000;28;19913;-72
2023/09/07 01:04:00;;;;;;;;;;;20.50;93.60;;;;;;5007853;28;19913;-72
2023/09/07 01:06:28;;;;;;;;;;;20.60;94.10;;;;;;5006649;28;20408;-71
2023/09/07 01:08:56;;;;;;;;;;;20.50;93.70;;;;;;5007565;28;19957;-72
2023/09/07 01:11:22;;;;;;;;;;;20.50;93.80;;;;;;5007914;28;19914;-72
2023/09/07 01:13:48;;;;;;;;;;;20.50;93.80;;;;;;5007972;28;19949;-72
2023/09/07 01:16:14;;;;;;;;;;;20.40;93.80;;;;;;5007686;28;19941;-72
2023/09/07 01:18:39;;;;;;;;;;;20.40;93.90;;;;;;5008139;28;19913;-72
2023/09/07 01:21:07;;;;;;;;;;;20.40;94.00;;;;;;5007263;28;19913;-72
2023/09/07 01:23:34;;;;;;;;;;;20.40;94.00;;;;;;5007895;28;19918;-72
2023/09/07 01:26:00;;;;;;;;;;;20.30;93.90;;;;;;5007671;28;19913;-72
2023/09/07 01:28:25;;;;;;;;;;;20.30;94.00;;;;;;5007973;28;19924;-72
2023/09/07 01:30:52;;;;;;;;;;;20.30;94.50;;;;;;5007627;28;19964;-72
2023/09/07 01:33:17;;;;;;;;;;;20.20;94.10;;;;;;5007993;28;19960;-72
2023/09/07 01:35:43;;;;;;;;;;;20.20;94.10;;;;;;5007923;28;19960;-72
2023/09/07 01:38:09;;;;;;;;;;;20.20;94.30;;;;;;5004827;28;20285;-72
2023/09/07 01:40:35;;;;;;;;;;;20.20;94.30;;;;;;5007456;28;19910;-72
2023/09/07 01:43:01;;;;;;;;;;;20.20;94.20;;;;;;5001784;28;19939;-72
2023/09/07 01:45:26;;;;;;;;;;;20.20;94.20;;;;;;5001556;28;20322;-72
2023/09/07 01:47:52;;;;;;;;;;;20.10;94.10;;;;;;5002647;28;19921;-72
2023/09/07 01:50:17;;;;;;;;;;;20.10;94.20;;;;;;5006320;28;19921;-72
2023/09/07 01:52:45;;;;;;;;;;;20.10;94.30;;;;;;5007495;28;19926;-72
2023/09/07 01:55:10;;;;;;;;;;;20.10;94.30;;;;;;5011031;28;20004;-72
2023/09/07 01:57:36;;;;;;;;;;;20.10;94.20;;;;;;5011678;28;19988;-72
2023/09/07 02:00:03;;;;;;;;;;;20.00;94.40;;;;;;5009734;28;20281;-72
2023/09/07 02:02:29;;;;;;;;;;;20.00;94.40;;;;;;5009986;28;19916;-72
2023/09/07 02:04:54;;;;;;;;;;;20.00;94.40;;;;;;5011271;28;19909;-72
2023/09/07 02:07:20;;;;;;;;;;;20.00;94.40;;;;;;5009986;28;20482;-72
2023/09/07 02:09:45;;;;;;;;;;;19.90;94.40;;;;;;5011210;28;19920;-72
2023/09/07 02:12:11;;;;;;;;;;;19.90;94.40;;;;;;5010289;28;19955;-72
2023/09/07 02:14:36;;;;;;;;;;;19.90;94.50;;;;;;5011447;28;19909;-72
2023/09/07 02:17:04;;;;;;;;;;;19.90;94.30;;;;;;5009691;28;20282;-72
2023/09/07 02:19:30;;;;;;;;;;;19.90;94.40;;;;;;5005765;28;20354;-72
2023/09/07 02:21:55;;;;;;;;;;;19.80;94.40;;;;;;5010852;28;19913;-72
2023/09/07 02:24:21;;;;;;;;;;;19.80;94.50;;;;;;5011108;28;19913;-72
2023/09/07 02:26:46;;;;;;;;;;;19.80;94.40;;;;;;5011164;28;19944;-72
2023/09/07 02:29:12;;;;;;;;;;;19.80;94.50;;;;;;5010535;28;19956;-72
2023/09/07 02:31:39;;;;;;;;;;;19.80;94.50;;;;;;5010811;28;19913;-72
2023/09/07 02:34:04;;;;;;;;;;;19.70;94.50;;;;;;5009166;28;19913;-72
2023/09/07 02:36:30;;;;;;;;;;;19.70;94.50;;;;;;5010813;28;19920;-72
2023/09/07 02:38:55;;;;;;;;;;;19.70;94.50;;;;;;5009534;28;19914;-72
2023/09/07 02:41:21;;;;;;;;;;;19.60;94.50;;;;;;5010583;28;20278;-72
2023/09/07 02:43:46;;;;;;;;;;;19.60;94.40;;;;;;5010717;28;19920;-72
2023/09/07 02:46:12;;;;;;;;;;;19.60;94.40;;;;;;5009021;28;20012;-72
2023/09/07 02:48:37;;;;;;;;;;;19.60;94.60;;;;;;5010620;28;19952;-72
2023/09/07 02:51:03;;;;;;;;;;;19.60;94.70;;;;;;5009964;28;19914;-72
2023/09/07 02:53:29;;;;;;;;;;;19.60;94.60;;;;;;5010419;28;20345;-72
2023/09/07 02:55:55;;;;;;;;;;;19.60;94.60;;;;;;5010202;28;19936;-72
2023/09/07 02:58:22;;;;;;;;;;;19.50;94.50;;;;;;5010421;28;20346;-72
2023/09/07 03:00:48;;;;;;;;;;;19.50;94.60;;;;;;5010290;28;19957;-72
2023/09/07 03:03:13;;;;;;;;;;;19.50;94.70;;;;;;5008734;28;20360;-72
2023/09/07 03:05:40;;;;;;;;;;;19.50;94.60;;;;;;5009604;28;20558;-72
2023/09/07 03:08:06;;;;;;;;;;;19.50;94.70;;;;;;5002956;28;20036;-72
2023/09/07 03:10:32;;;;;;;;;;;19.40;94.70;;;;;;5010178;28;19936;-72
2023/09/07 03:12:58;;;;;;;;;;;19.40;94.60;;;;;;5010088;28;20570;-72
2023/09/07 03:15:23;;;;;;;;;;;19.40;94.60;;;;;;5010240;28;19914;-72
2023/09/07 03:17:49;;;;;;;;;;;19.30;95.00;;;;;;5010313;28;19910;-72
2023/09/07 03:20:14;;;;;;;;;;;19.40;94.70;;;;;;5009375;28;19918;-72
2023/09/07 03:22:41;;;;;;;;;;;19.40;94.70;;;;;;5009883;28;20669;-72
2023/09/07 03:25:06;;;;;;;;;;;19.30;94.70;;;;;;5008120;28;19913;-72
2023/09/07 03:27:32;;;;;;;;;;;19.30;94.80;;;;;;5009857;28;19917;-72
2023/09/07 03:29:57;;;;;;;;;;;19.30;94.80;;;;;;5008222;28;19914;-72
2023/09/07 03:32:23;;;;;;;;;;;19.30;94.70;;;;;;5009720;28;19917;-72
2023/09/07 03:34:48;;;;;;;;;;;19.20;94.70;;;;;;5009900;28;19914;-72
2023/09/07 03:37:14;;;;;;;;;;;19.20;94.80;;;;;;5009106;28;19953;-72
2023/09/07 03:39:39;;;;;;;;;;;19.20;94.70;;;;;;5008184;28;19913;-72
2023/09/07 03:42:07;;;;;;;;;;;19.20;94.80;;;;;;5009024;28;19960;-72
2023/09/07 03:44:33;;;;;;;;;;;19.20;94.80;;;;;;5009475;28;20008;-72
2023/09/07 03:47:00;;;;;;;;;;;19.10;94.80;;;;;;5006047;28;20001;-72
2023/09/07 03:49:25;;;;;;;;;;;19.10;94.70;;;;;;5009594;28;19976;-72
2023/09/07 03:51:51;;;;;;;;;;;19.10;94.70;;;;;;5007818;28;20370;-72
2023/09/07 03:54:16;;;;;;;;;;;19.10;94.80;;;;;;5009103;28;19910;-72
2023/09/07 03:56:42;;;;;;;;;;;19.00;94.80;;;;;;5008045;28;20518;-72
2023/09/07 03:59:07;;;;;;;;;;;19.10;94.80;;;;;;5007621;28;19914;-72
2023/09/07 04:01:33;;;;;;;;;;;19.10;94.80;;;;;;5009129;28;19971;-72
2023/09/07 04:04:01;;;;;;;;;;;19.00;94.80;;;;;;5009021;28;19913;-72
2023/09/07 04:06:27;;;;;;;;;;;19.00;94.80;;;;;;5009393;28;19909;-72
2023/09/07 04:08:52;;;;;;;;;;;19.00;94.80;;;;;;5007325;28;19924;-72
2023/09/07 04:11:18;;;;;;;;;;;19.00;94.80;;;;;;5008787;28;19914;-72
2023/09/07 04:13:43;;;;;;;;;;;18.90;94.80;;;;;;5007659;28;19914;-72
2023/09/07 04:16:09;;;;;;;;;;;18.90;94.80;;;;;;5007740;28;20000;-72
2023/09/07 04:18:35;;;;;;;;;;;18.90;94.90;;;;;;5006180;28;20362;-72
2023/09/07 04:21:09;;;;;;;;;;;18.90;94.90;;;;;;5008339;28;19921;-72
2023/09/07 04:23:35;;;;;;;;;;;18.90;94.80;;;;;;5008750;28;19914;-72
2023/09/07 04:26:07;;;;;;;;;;;18.80;94.80;;;;;;5008455;28;19913;-72
2023/09/07 04:28:33;;;;;;;;;;;18.80;94.80;;;;;;5008693;28;19917;-72
2023/09/07 04:30:59;;;;;;;;;;;18.80;94.80;;;;;;5007988;28;20560;-72
2023/09/07 04:33:24;;;;;;;;;;;18.80;94.80;;;;;;5008735;28;20413;-72
2023/09/07 04:35:50;;;;;;;;;;;18.80;94.80;;;;;;5008651;28;19971;-72
2023/09/07 04:38:15;;;;;;;;;;;18.80;94.80;;;;;;5006573;28;19913;-72
2023/09/07 04:40:41;;;;;;;;;;;18.80;94.80;;;;;;5008266;28;20270;-72
2023/09/07 04:43:06;;;;;;;;;;;18.80;94.80;;;;;;5008239;28;20474;-72
2023/09/07 04:45:32;;;;;;;;;;;18.70;94.80;;;;;;5008562;28;19945;-72
2023/09/07 04:47:57;;;;;;;;;;;18.70;94.80;;;;;;5008008;28;19936;-72
2023/09/07 04:50:23;;;;;;;;;;;18.70;94.80;;;;;;5008344;28;19917;-72
2023/09/07 04:52:48;;;;;;;;;;;18.70;94.90;;;;;;5008423;28;20371;-72
2023/09/07 04:55:14;;;;;;;;;;;18.70;94.80;;;;;;5007870;28;19918;-72
2023/09/07 04:57:39;;;;;;;;;;;18.70;94.80;;;;;;5007150;28;19917;-72
2023/09/07 05:00:06;;;;;;;;;;;18.70;94.80;;;;;;5006824;28;20259;-72
2023/09/07 05:02:31;;;;;;;;;;;18.60;94.80;;;;;;5006855;28;19914;-72
2023/09/07 05:04:57;;;;;;;;;;;18.60;94.80;;;;;;5006573;28;20592;-72
2023/09/07 05:07:22;;;;;;;;;;;18.60;94.80;;;;;;5008252;28;19921;-72
2023/09/07 05:09:48;;;;;;;;;;;18.60;94.80;;;;;;5006706;28;19944;-72
2023/09/07 05:12:18;;;;;;;;;;;18.60;94.70;;;;;;5007442;28;19913;-72
2023/09/07 05:14:43;;;;;;;;;;;18.60;94.90;;;;;;5007886;28;19971;-72
2023/09/07 05:17:09;;;;;;;;;;;18.50;94.80;;;;;;5007707;28;19917;-72
2023/09/07 05:19:34;;;;;;;;;;;18.50;94.80;;;;;;5006763;28;19910;-72
2023/09/07 05:22:00;;;;;;;;;;;18.50;94.80;;;;;;5007326;28;20430;-72
2023/09/07 05:24:26;;;;;;;;;;;18.50;94.90;;;;;;5006635;28;19914;-72
2023/09/07 05:26:51;;;;;;;;;;;18.50;94.80;;;;;;5007693;28;19910;-72
2023/09/07 05:29:17;;;;;;;;;;;18.50;94.80;;;;;;5005980;28;20441;-72
2023/09/07 05:31:42;;;;;;;;;;;18.50;94.80;;;;;;5007653;28;19967;-72
2023/09/07 05:34:08;;;;;;;;;;;18.50;94.80;;;;;;5007504;28;19944;-72
2023/09/07 05:36:33;;;;;;;;;;;18.50;94.80;;;;;;5007891;28;19914;-72
2023/09/07 05:38:59;;;;;;;;;;;18.40;94.80;;;;;;5007364;28;19909;-72
2023/09/07 05:41:24;;;;;;;;;;;18.50;94.70;;;;;;5006263;28;19952;-72
2023/09/07 05:43:52;;;;;;;;;;;18.50;94.80;;;;;;5005679;28;19960;-72
2023/09/07 05:46:18;;;;;;;;;;;18.40;94.80;;;;;;5006002;28;19920;-72
2023/09/07 05:48:44;;;;;;;;;;;18.40;94.90;;;;;;5006335;28;19921;-72
2023/09/07 05:51:09;;;;;;;;;;;18.40;94.90;;;;;;5006926;28;19910;-72
2023/09/07 05:53:35;;;;;;;;;;;18.40;94.90;;;;;;5006210;28;19920;-72
2023/09/07 05:56:00;;;;;;;;;;;18.40;94.90;;;;;;5007587;28;19913;-72
2023/09/07 05:58:27;;;;;;;;;;;18.40;94.80;;;;;;5007792;28;20051;-72
2023/09/07 06:00:52;;;;;;;;;;;18.40;94.90;;;;;;5007388;28;19990;-72
2023/09/07 06:03:18;;;;;;;;;;;18.40;94.90;;;;;;5007325;28;19917;-72
2023/09/07 06:05:44;;;;;;;;;;;18.40;94.90;;;;;;5007437;28;19913;-72
2023/09/07 06:08:09;;;;;;;;;;;18.40;94.80;;;;;;5005573;28;20270;-72
2023/09/07 06:10:35;;;;;;;;;;;18.40;95.10;;;;;;5006880;28;19913;-72
2023/09/07 06:13:01;;;;;;;;;;;18.40;94.90;;;;;;5006019;28;19914;-72
2023/09/07 06:15:27;;;;;;;;;;;18.40;94.90;;;;;;5007496;28;20378;-72
2023/09/07 06:17:52;;;;;;;;;;;18.40;94.90;;;;;;5007595;28;19913;-72
2023/09/07 06:20:19;;;;;;;;;;;18.40;94.90;;;;;;5006980;28;20012;-72
2023/09/07 06:22:45;;;;;;;;;;;18.40;94.80;;;;;;5006627;28;20005;-72
2023/09/07 06:25:10;;;;;;;;;;;18.40;94.80;;;;;;5006880;28;20004;-72
2023/09/07 06:27:36;;;;;;;;;;;18.40;94.90;;;;;;5007415;28;19914;-72
2023/09/07 06:30:02;;;;;;;;;;;18.40;94.90;;;;;;5006960;28;19910;-72
2023/09/07 06:32:28;;;;;;;;;;;18.40;94.90;;;;;;5007176;28;19967;-72
2023/09/07 06:34:53;;;;;;;;;;;18.40;94.90;;;;;;5007503;28;19914;-72
2023/09/07 06:37:19;;;;;;;;;;;18.40;94.80;;;;;;5005228;28;19913;-72
2023/09/07 06:39:44;;;;;;;;;;;18.40;94.90;;;;;;5008348;28;20025;-72
2023/09/07 06:42:10;;;;;;;;;;;18.40;95.00;;;;;;5008876;28;19957;-72
2023/09/07 06:44:36;;;;;;;;;;;18.40;95.00;;;;;;5010881;28;20416;-72
2023/09/07 06:47:01;;;;;;;;;;;18.40;94.80;;;;;;5010322;28;19910;-72
2023/09/07 06:49:29;;;;;;;;;;;18.40;94.90;;;;;;5010702;28;19925;-72
2023/09/07 06:51:56;;;;;;;;;;;18.40;94.80;;;;;;5010390;28;20556;-72
2023/09/07 06:54:21;;;;;;;;;;;18.40;94.80;;;;;;5002568;28;19913;-72
2023/09/07 06:56:47;;;;;;;;;;;18.40;94.80;;;;;;5010487;28;20417;-72
2023/09/07 06:59:13;;;;;;;;;;;18.40;94.80;;;;;;5009926;28;19959;-72
2023/09/07 07:01:38;;;;;;;;;;;18.40;94.90;;;;;;5010085;28;19913;-72
2023/09/07 07:04:04;;;;;;;;;;;18.40;94.90;;;;;;5009949;28;19921;-72
2023/09/07 07:06:29;;;;;;;;;;;18.40;94.70;;;;;;5010280;28;20359;-72
2023/09/07 07:08:55;;;;;;;;;;;18.40;94.70;;;;;;5009776;28;19917;-72
2023/09/07 07:11:20;;;;;;;;;;;18.40;94.70;;;;;;5010070;28;19920;-72
2023/09/07 07:13:46;;;;;;;;;;;18.40;94.60;;;;;;5008714;28;19917;-72
2023/09/07 07:16:12;;;;;;;;;;;18.40;94.70;;;;;;5009806;28;19922;-72
2023/09/07 07:18:39;;;;;;;;;;;18.40;94.60;;;;;;5008784;28;20550;-72
2023/09/07 07:21:05;;;;;;;;;;;18.40;94.60;;;;;;5008850;28;20365;-72
2023/09/07 07:23:30;;;;;;;;;;;18.40;94.50;;;;;;5009147;28;19960;-72
2023/09/07 07:25:56;;;;;;;;;;;18.40;94.50;;;;;;5008646;28;20536;-72
2023/09/07 07:28:21;;;;;;;;;;;18.40;94.50;;;;;;5009854;28;20681;-72
2023/09/07 07:30:48;;;;;;;;;;;18.40;94.80;;;;;;5008617;28;19914;-72
2023/09/07 07:33:13;;;;;;;;;;;18.50;94.50;;;;;;5006812;28;20353;-72
2023/09/07 07:35:39;;;;;;;;;;;18.50;94.50;;;;;;5005242;28;19988;-72
2023/09/07 07:38:07;;;;;;;;;;;18.50;94.50;;;;;;5008674;28;19914;-72
2023/09/07 07:40:33;;;;;;;;;;;18.50;94.50;;;;;;5009404;28;19922;-72
2023/09/07 07:42:58;;;;;;;;;;;18.50;94.40;;;;;;5007826;28;19913;-72
2023/09/07 07:45:24;;;;;;;;;;;18.50;94.40;;;;;;5009890;28;19944;-72
2023/09/07 07:47:50;;;;;;;;;;;18.50;94.40;;;;;;5009621;28;19925;-72
2023/09/07 07:50:16;;;;;;;;;;;18.60;94.30;;;;;;5008892;28;19913;-72
2023/09/07 07:52:41;;;;;;;;;;;18.60;94.30;;;;;;5009297;28;19956;-72
2023/09/07 07:55:07;;;;;;;;;;;18.60;94.30;;;;;;5008893;28;19963;-72
2023/09/07 07:57:32;;;;;;;;;;;18.60;94.20;;;;;;5009340;28;19913;-72
2023/09/07 07:59:58;;;;;;;;;;;18.60;94.30;;;;;;5008887;28;19917;-71
2023/09/07 08:02:23;;;;;;;;;;;18.70;94.20;;;;;;5009213;28;20000;-72
2023/09/07 08:04:49;;;;;;;;;;;18.70;94.10;;;;;;5009298;28;19921;-71
2023/09/07 08:07:14;;;;;;;;;;;18.70;94.10;;;;;;5008779;28;19917;-72
2023/09/07 08:09:40;;;;;;;;;;;18.80;94.00;;;;;;5008839;28;19917;-72
2023/09/07 08:12:06;;;;;;;;;;;18.80;94.00;;;;;;5008450;28;19963;-72
2023/09/07 08:14:31;;;;;;;;;;;18.80;93.90;;;;;;5007425;28;19910;-71
2023/09/07 08:16:57;;;;;;;;;;;18.80;93.90;;;;;;5008373;28;19909;-72
2023/09/07 08:19:23;;;;;;;;;;;18.90;93.90;;;;;;5007766;28;20282;-72
2023/09/07 08:21:49;;;;;;;;;;;18.90;93.90;;;;;;5008577;28;19917;-71
2023/09/07 08:24:14;;;;;;;;;;;18.90;93.80;;;;;;5008390;28;19921;-71
2023/09/07 08:26:40;;;;;;;;;;;19.00;94.10;;;;;;5008914;28;19971;-71
2023/09/07 08:29:06;;;;;;;;;;;19.00;93.70;;;;;;5008300;28;19917;-71
2023/09/07 08:31:33;;;;;;;;;;;19.00;93.70;;;;;;5008696;28;19910;-71
2023/09/07 08:34:03;;;;;;;;;;;19.10;93.60;;;;;;5008782;28;19914;-71
2023/09/07 08:36:32;;;;;;;;;;;19.20;93.70;;;;;;5008833;28;20659;-71
2023/09/07 08:39:00;;;;;;;;;;;19.20;93.60;;;;;;5006348;28;20589;-71
2023/09/07 08:41:26;;;;;;;;;;;19.20;93.50;;;;;;5008318;28;20035;-71
2023/09/07 08:43:52;;;;;;;;;;;19.30;93.50;;;;;;5008440;28;20111;-71
2023/09/07 08:46:21;;;;;;;;;;;19.30;93.50;;;;;;5008115;28;19996;-71
2023/09/07 08:48:47;;;;;;;;;;;19.40;93.30;;;;;;5008285;28;19921;-71
2023/09/07 08:51:14;;;;;;;;;;;19.40;93.20;;;;;;5007752;28;19914;-71
2023/09/07 08:53:41;;;;;;;;;;;19.50;93.20;;;;;;5008287;28;20341;-71
2023/09/07 08:56:09;;;;;;;;;;;19.50;93.10;;;;;;5006819;28;19920;-71
2023/09/07 08:58:35;;;;;;;;;;;19.60;93.30;;;;;;5008384;28;19917;-71
2023/09/07 09:01:01;;;;;;;;;;;19.60;93.00;;;;;;5007769;28;20027;-72
2023/09/07 09:03:28;;;;;;;;;;;19.60;93.00;;;;;;5008042;28;20012;-71
2023/09/07 09:05:55;;;;;;;;;;;19.70;93.00;;;;;;5008382;28;19914;-71
2023/09/07 09:08:24;;;;;;;;;;;19.70;92.90;;;;;;4999714;28;20544;-71
2023/09/07 09:11:03;;;;;;;;;;;19.80;92.80;;;;;;5007716;28;19913;-71
2023/09/07 09:13:32;;;;;;;;;;;19.80;92.80;;;;;;5008120;28;20366;-71
2023/09/07 09:16:01;;;;;;;;;;;19.90;92.80;;;;;;5007854;28;19957;-71
2023/09/07 09:18:27;;;;;;;;;;;19.90;92.80;;;;;;5008447;28;19976;-71
2023/09/07 09:20:53;;;;;;;;;;;19.90;92.70;;;;;;5007981;28;19910;-71
2023/09/07 09:23:18;;;;;;;;;;;20.00;92.80;;;;;;5006467;28;20016;-71
2023/09/07 09:25:44;;;;;;;;;;;20.00;92.70;;;;;;5007968;28;19992;-71
2023/09/07 09:28:10;;;;;;;;;;;20.00;92.60;;;;;;5007446;28;19920;-71
2023/09/07 09:30:36;;;;;;;;;;;20.10;92.60;;;;;;5002199;28;19913;-71
2023/09/07 09:33:02;;;;;;;;;;;20.10;92.50;;;;;;5007710;28;19919;-71
2023/09/07 09:35:29;;;;;;;;;;;20.20;92.60;;;;;;5006755;28;19992;-71
2023/09/07 09:37:58;;;;;;;;;;;20.20;92.40;;;;;;5007143;28;19967;-72
2023/09/07 09:40:25;;;;;;;;;;;20.30;92.40;;;;;;5007391;28;20396;-71
2023/09/07 09:42:51;;;;;;;;;;;20.40;92.30;;;;;;5007633;28;19920;-71
2023/09/07 09:45:18;;;;;;;;;;;20.40;92.40;;;;;;5007466;28;19913;-72
2023/09/07 09:47:44;;;;;;;;;;;20.40;92.30;;;;;;5006186;28;19921;-72
2023/09/07 09:50:11;;;;;;;;;;;20.40;92.30;;;;;;5005559;28;19937;-71
2023/09/07 09:52:37;;;;;;;;;;;20.50;92.20;;;;;;5001034;28;19917;-71
2023/09/07 09:55:07;;;;;;;;;;;20.60;92.20;;;;;;5005592;28;19963;-71
2023/09/07 09:57:34;;;;;;;;;;;20.60;92.10;;;;;;5007600;28;20012;-71
2023/09/07 10:00:03;;;;;;;;;;;20.60;92.10;;;;;;5007464;28;19916;-71
2023/09/07 10:02:29;;;;;;;;;;;20.70;92.10;;;;;;5007570;28;19909;-71
2023/09/07 10:04:55;;;;;;;;;;;20.70;92.00;;;;;;5007513;28;19913;-71
2023/09/07 10:07:28;;;;;;;;;;;20.80;92.00;;;;;;4999396;28;20373;-71
2023/09/07 10:09:56;;;;;;;;;;;20.80;91.90;;;;;;5007835;28;19918;-71
2023/09/07 10:12:27;;;;;;;;;;;20.90;91.80;;;;;;5006963;28;19910;-71
2023/09/07 10:14:55;;;;;;;;;;;20.90;91.90;;;;;;5009208;28;19918;-71
2023/09/07 10:17:23;;;;;;;;;;;21.00;91.80;;;;;;5011200;28;19914;-71
2023/09/07 10:19:51;;;;;;;;;;;21.10;91.80;;;;;;5010019;28;19917;-71
2023/09/07 10:22:21;;;;;;;;;;;21.10;91.80;;;;;;5010510;28;19909;-71
2023/09/07 10:24:56;;;;;;;;;;;21.20;91.70;;;;;;5010590;28;19914;-71
2023/09/07 10:27:21;;;;;;;;;;;21.20;91.70;;;;;;5010915;28;19913;-71
2023/09/07 10:29:52;;;;;;;;;;;21.30;91.70;;;;;;5009600;28;20348;-71
2023/09/07 10:32:18;;;;;;;;;;;21.30;91.70;;;;;;5009044;28;19967;-71
2023/09/07 10:34:43;;;;;;;;;;;21.40;91.70;;;;;;5011104;28;19913;-71
2023/09/07 10:37:18;;;;;;;;;;;21.50;91.90;;;;;;5010240;28;19913;-71
2023/09/07 10:39:44;;;;;;;;;;;21.60;91.90;;;;;;5010870;28;19959;-71
2023/09/07 10:42:23;;;;;;;;;;;21.60;92.30;;;;;;5010217;28;19910;-71
2023/09/07 10:44:49;;;;;;;;;;;21.80;92.10;;;;;;5010638;28;20393;-71
2023/09/07 10:47:14;;;;;;;;;;;21.80;92.10;;;;;;5010456;28;19940;-71
2023/09/07 10:49:40;;;;;;;;;;;21.90;92.20;;;;;;5010795;28;19944;-71
2023/09/07 10:52:05;;;;;;;;;;;22.00;92.50;;;;;;5008435;28;19909;-71
2023/09/07 10:54:31;;;;;;;;;;;22.20;92.30;;;;;;5010728;28;19910;-71
2023/09/07 10:57:06;;;;;;;;;;;22.20;92.30;;;;;;5010795;28;19914;-71
2023/09/07 10:59:32;;;;;;;;;;;22.40;92.30;;;;;;5003704;28;20337;-71
2023/09/07 11:02:03;;;;;;;;;;;22.50;92.40;;;;;;5010468;28;19913;-71
2023/09/07 11:04:29;;;;;;;;;;;22.60;92.50;;;;;;5003241;28;19968;-71
2023/09/07 11:06:54;;;;;;;;;;;22.70;92.50;;;;;;5010617;28;20298;-71
2023/09/07 11:09:20;;;;;;;;;;;22.80;92.50;;;;;;5008403;28;19957;-71
2023/09/07 11:11:46;;;;;;;;;;;22.90;92.60;;;;;;5008747;28;20329;-71
2023/09/07 11:14:12;;;;;;;;;;;23.00;92.70;;;;;;5009965;28;20421;-71
2023/09/07 11:16:40;;;;;;;;;;;23.10;92.70;;;;;;5010404;28;19917;-71
2023/09/07 11:19:06;;;;;;;;;;;23.20;92.70;;;;;;5010183;28;19914;-71
2023/09/07 11:21:34;;;;;;;;;;;23.40;92.70;;;;;;5009998;28;20027;-71
2023/09/07 11:24:00;;;;;;;;;;;23.50;92.80;;;;;;5010027;28;19951;-71
2023/09/07 11:26:26;;;;;;;;;;;23.60;92.90;;;;;;5009888;28;19948;-71
2023/09/07 11:28:51;;;;;;;;;;;23.70;92.80;;;;;;5009945;28;19921;-71
2023/09/07 11:31:21;;;;;;;;;;;23.80;92.90;;;;;;5009351;28;19914;-71
2023/09/07 11:33:49;;;;;;;;;;;23.90;93.00;;;;;;5007593;28;20309;-71
2023/09/07 11:36:15;;;;;;;;;;;24.00;93.00;;;;;;5009554;28;19917;-71
2023/09/07 11:38:42;;;;;;;;;;;24.20;93.10;;;;;;5009440;28;20016;-71
2023/09/07 11:41:08;;;;;;;;;;;24.30;93.10;;;;;;5009086;28;19913;-71
2023/09/07 11:43:33;;;;;;;;;;;24.40;93.00;;;;;;5009748;28;19935;-72
2023/09/07 11:46:00;;;;;;;;;;;24.50;93.00;;;;;;5009735;28;19940;-71
2023/09/07 11:48:26;;;;;;;;;;;24.60;93.20;;;;;;5001630;28;20000;-71
2023/09/07 11:50:51;;;;;;;;;;;24.70;93.20;;;;;;5007900;28;20020;-71
2023/09/07 11:53:17;;;;;;;;;;;24.70;93.20;;;;;;5007634;28;19913;-71
2023/09/07 11:55:43;;;;;;;;;;;24.80;93.30;;;;;;5008067;28;19914;-71
2023/09/07 11:58:09;;;;;;;;;;;24.90;93.40;;;;;;5007711;28;20306;-71
2023/09/07 12:00:34;;;;;;;;;;;25.00;93.40;;;;;;5009107;28;19916;-71
2023/09/07 12:03:00;;;;;;;;;;;25.10;93.40;;;;;;5008784;28;19944;-71
2023/09/07 12:05:25;;;;;;;;;;;25.20;93.50;;;;;;5000304;28;19917;-71
2023/09/07 12:07:51;;;;;;;;;;;25.30;93.40;;;;;;5008034;28;19921;-71
2023/09/07 12:10:16;;;;;;;;;;;25.30;93.40;;;;;;5008703;28;20325;-71
2023/09/07 12:12:42;;;;;;;;;;;25.40;93.50;;;;;;5008782;28;19917;-71
2023/09/07 12:15:08;;;;;;;;;;;25.50;93.50;;;;;;5007363;28;19910;-71
2023/09/07 12:17:34;;;;;;;;;;;25.50;93.60;;;;;;5009131;28;20286;-71
2023/09/07 12:20:00;;;;;;;;;;;25.60;93.60;;;;;;5009118;28;19940;-71
2023/09/07 12:22:26;;;;;;;;;;;25.70;93.60;;;;;;5007461;28;19956;-71
2023/09/07 12:24:51;;;;;;;;;;;25.70;93.60;;;;;;5007584;28;19960;-71
2023/09/07 12:27:18;;;;;;;;;;;25.80;93.60;;;;;;5008156;28;19914;-71
2023/09/07 12:29:43;;;;;;;;;;;25.80;93.60;;;;;;5002005;28;19924;-71
2023/09/07 12:32:09;;;;;;;;;;;25.90;93.50;;;;;;5008287;28;20004;-71
2023/09/07 12:34:35;;;;;;;;;;;25.90;93.60;;;;;;5008953;28;19910;-71
2023/09/07 12:37:01;;;;;;;;;;;26.00;93.70;;;;;;5006764;28;20289;-71
2023/09/07 12:39:26;;;;;;;;;;;26.10;93.80;;;;;;5008854;28;20021;-71
2023/09/07 12:41:52;;;;;;;;;;;26.10;93.70;;;;;;5008394;28;19959;-71
2023/09/07 12:44:20;;;;;;;;;;;26.20;93.90;;;;;;5008374;28;19913;-71
2023/09/07 12:46:46;;;;;;;;;;;26.20;93.70;;;;;;5007387;28;19917;-71
2023/09/07 12:49:12;;;;;;;;;;;26.30;93.80;;;;;;5008199;28;19921;-71
2023/09/07 12:51:37;;;;;;;;;;;26.40;93.70;;;;;;5008253;28;20013;-71
2023/09/07 12:54:03;;;;;;;;;;;26.50;93.80;;;;;;5008047;28;19914;-71
2023/09/07 12:56:28;;;;;;;;;;;26.50;93.80;;;;;;5008669;28;19953;-71
2023/09/07 12:58:54;;;;;;;;;;;26.60;93.70;;;;;;5008470;28;19914;-71
2023/09/07 13:01:19;;;;;;;;;;;26.60;93.80;;;;;;5008093;28;20377;-71
2023/09/07 13:03:45;;;;;;;;;;;26.60;93.70;;;;;;5008479;28;20349;-71
2023/09/07 13:06:10;;;;;;;;;;;26.70;93.90;;;;;;5007911;28;19913;-71
2023/09/07 13:08:36;;;;;;;;;;;26.80;93.70;;;;;;5008198;28;19920;-71
2023/09/07 13:11:02;;;;;;;;;;;26.80;93.80;;;;;;5007738;28;19954;-71
2023/09/07 13:13:28;;;;;;;;;;;26.80;93.80;;;;;;5008228;28;19917;-71
2023/09/07 13:15:57;;;;;;;;;;;26.90;93.90;;;;;;5008040;28;19914;-71
2023/09/07 13:18:22;;;;;;;;;;;26.90;93.80;;;;;;5007907;28;20619;-71
2023/09/07 13:20:49;;;;;;;;;;;27.00;93.80;;;;;;5007833;28;20029;-71
2023/09/07 13:23:15;;;;;;;;;;;27.00;93.90;;;;;;5007553;28;19913;-71
2023/09/07 13:25:41;;;;;;;;;;;27.10;93.80;;;;;;5002618;28;19913;-71
2023/09/07 13:28:06;;;;;;;;;;;27.10;93.70;;;;;;5006263;28;19921;-71
2023/09/07 13:30:32;;;;;;;;;;;27.20;93.70;;;;;;5007737;28;19914;-71
2023/09/07 13:32:57;;;;;;;;;;;27.20;93.30;;;;;;5008068;28;19996;-71
2023/09/07 13:35:23;;;;;;;;;;;27.30;93.70;;;;;;5007699;28;19920;-71
2023/09/07 13:37:48;;;;;;;;;;;27.30;93.80;;;;;;5007059;28;19920;-71
2023/09/07 13:40:14;;;;;;;;;;;27.40;93.70;;;;;;5007685;28;19940;-71
2023/09/07 13:42:40;;;;;;;;;;;27.40;93.80;;;;;;5007756;28;19917;-71
2023/09/07 13:45:06;;;;;;;;;;;27.40;93.70;;;;;;5007348;28;19961;-71
2023/09/07 13:47:32;;;;;;;;;;;27.50;93.50;;;;;;5007782;28;20215;-71
2023/09/07 13:49:57;;;;;;;;;;;27.50;93.60;;;;;;5010129;28;20425;-71
2023/09/07 13:52:23;;;;;;;;;;;27.50;93.70;;;;;;5004288;28;19921;-71
2023/09/07 13:54:48;;;;;;;;;;;27.60;93.60;;;;;;5010320;28;19987;-71
2023/09/07 13:57:14;;;;;;;;;;;27.60;93.60;;;;;;5010020;28;19983;-71
2023/09/07 13:59:39;;;;;;;;;;;27.70;93.50;;;;;;5011743;28;19913;-71
2023/09/07 14:02:05;;;;;;;;;;;27.70;93.50;;;;;;5010978;28;19909;-71
2023/09/07 14:04:31;;;;;;;;;;;27.70;93.40;;;;;;5011573;28;20385;-71
2023/09/07 14:06:56;;;;;;;;;;;27.80;93.50;;;;;;5011676;28;19914;-71
2023/09/07 14:09:23;;;;;;;;;;;27.80;93.20;;;;;;5010994;28;20055;-71